createdAt,value
2023-03-12T01:46:36.597Z,12.90
2023-03-12T01:49:15.125Z,9.80
2023-03-12T01:51:51.407Z,12.90
2023-03-12T01:54:24.061Z,13.60
2023-03-12T01:56:54.763Z,8.90
2023-03-12T01:59:47.723Z,11.00
2023-03-12T02:02:15.527Z,6.90
2023-03-12T02:04:42.978Z,8.20
2023-03-12T02:07:11.939Z,12.90
2023-03-12T02:09:51.011Z,9.00
2023-03-12T02:12:18.442Z,10.10
2023-03-12T02:14:47.888Z,17.00
2023-03-12T02:17:17.568Z,11.00
2023-03-12T02:20:17.882Z,7.90
2023-03-12T02:22:49.397Z,8.50
2023-03-12T02:25:42.320Z,9.50
2023-03-12T02:28:13.239Z,9.80
2023-03-12T02:30:48.579Z,14.00
2023-03-12T02:33:23.909Z,10.80
2023-03-12T02:35:52.635Z,11.70
2023-03-12T02:38:35.449Z,12.50
2023-03-12T02:41:13.881Z,16.50
2023-03-12T02:43:46.008Z,11.30
2023-03-12T02:46:13.469Z,14.10
2023-03-12T02:48:40.649Z,16.20
2023-03-12T02:51:07.586Z,10.40
2023-03-12T02:53:34.914Z,11.20
2023-03-12T02:56:04.691Z,15.20
2023-03-12T02:58:35.794Z,13.70
2023-03-12T03:01:07.161Z,13.10
2023-03-12T03:03:34.491Z,16.40
2023-03-12T03:06:01.426Z,13.90
2023-03-12T03:08:35.003Z,12.70
2023-03-12T03:11:03.031Z,15.10
2023-03-12T03:13:30.361Z,13.80
2023-03-12T03:16:00.203Z,12.60
2023-03-12T03:18:29.376Z,12.50
2023-03-12T03:20:57.830Z,11.80
2023-03-12T03:23:26.856Z,9.10
2023-03-12T03:25:54.171Z,10.20
2023-03-12T03:28:24.458Z,11.10
2023-03-12T03:31:07.268Z,11.30
2023-03-12T03:33:38.170Z,9.10
2023-03-12T03:36:06.779Z,6.80
2023-03-12T03:38:43.879Z,8.20
2023-03-12T03:41:18.771Z,7.90
2023-03-12T03:43:47.506Z,5.90
2023-03-12T03:46:17.791Z,5.50
2023-03-12T03:48:51.047Z,4.30
2023-03-12T03:51:26.227Z,2.40
2023-03-12T03:56:32.236Z,3.10
2023-03-12T04:01:56.710Z,1.80
2023-03-12T04:04:29.852Z,2.00
2023-03-12T04:07:35.681Z,1.90
2023-03-12T04:10:31.447Z,5.90
2023-03-12T04:13:12.667Z,8.10
2023-03-12T04:15:51.051Z,1.60
2023-03-12T04:18:33.562Z,1.70
2023-03-12T04:21:04.056Z,3.50
2023-03-12T04:23:32.533Z,2.50
2023-03-12T04:28:52.550Z,3.90
2023-03-12T04:31:20.994Z,2.70
2023-03-12T04:33:55.433Z,3.20
2023-03-12T04:36:45.931Z,3.90
2023-03-12T04:39:42.984Z,1.80
2023-03-12T04:42:53.460Z,1.20
2023-03-12T04:45:35.355Z,1.40
2023-03-12T04:48:33.438Z,6.10
2023-03-12T04:51:07.632Z,6.40
2023-03-12T04:53:36.542Z,8.70
2023-03-12T04:56:30.099Z,16.60
2023-03-12T04:59:11.885Z,17.20
2023-03-12T05:01:47.146Z,29.30
2023-03-12T05:04:27.354Z,22.70
2023-03-12T05:07:07.620Z,26.80
2023-03-12T05:09:45.046Z,25.50
2023-03-12T05:12:17.917Z,35.70
2023-03-12T05:15:31.278Z,39.90
2023-03-12T05:18:22.008Z,37.80
2023-03-12T05:24:58.952Z,42.00
2023-03-12T05:28:03.745Z,41.40
2023-03-12T05:30:36.893Z,34.10
2023-03-12T05:33:05.507Z,16.20
2023-03-12T05:35:39.898Z,12.10
2023-03-12T05:38:12.097Z,6.70
2023-03-12T05:43:26.773Z,3.40
2023-03-12T05:46:10.184Z,4.10
2023-03-12T05:48:38.602Z,3.00
2023-03-12T05:53:53.955Z,2.90
2023-03-12T05:56:21.306Z,4.30
2023-03-12T05:58:49.683Z,3.10
2023-03-12T06:01:28.603Z,4.00
2023-03-12T06:07:27.141Z,6.10
2023-03-12T06:11:14.678Z,6.50
2023-03-12T06:13:50.208Z,7.80
2023-03-12T06:17:31.165Z,7.20
2023-03-12T06:19:59.140Z,7.10
2023-03-12T06:22:38.860Z,7.00
2023-03-12T06:25:10.153Z,7.30
2023-03-12T06:27:39.736Z,8.30
2023-03-12T06:30:08.857Z,7.90
2023-03-12T06:32:36.966Z,9.80
2023-03-12T06:35:07.182Z,9.10
2023-03-12T06:37:35.714Z,9.20
2023-03-12T06:40:12.809Z,11.10
2023-03-12T06:42:54.283Z,10.00
2023-03-12T06:45:23.480Z,9.50
2023-03-12T06:47:55.133Z,9.40
2023-03-12T06:50:24.815Z,10.60
2023-03-12T06:52:52.342Z,9.30
2023-03-12T06:55:21.680Z,11.40
2023-03-12T07:04:17.801Z,10.70
2023-03-12T07:10:14.192Z,9.90
2023-03-12T07:12:57.226Z,11.90
2023-03-12T07:15:35.931Z,11.00
2023-03-12T07:18:10.414Z,10.30
2023-03-12T07:20:43.084Z,10.20
2023-03-12T07:23:12.046Z,10.50
2023-03-12T07:26:05.768Z,8.80
2023-03-12T07:36:39.494Z,8.40
2023-03-12T07:39:15.741Z,8.90
2023-03-12T07:44:38.601Z,10.60
2023-03-12T07:47:22.555Z,10.60
2023-03-12T07:50:12.481Z,10.60
2023-03-12T07:52:46.992Z,11.40
2023-03-12T07:55:26.716Z,9.30
2023-03-12T07:58:09.696Z,6.80
2023-03-12T08:00:44.986Z,5.70
2023-03-12T08:03:15.576Z,6.10
2023-03-12T08:06:33.675Z,16.90
2023-03-12T08:09:02.881Z,5.70
2023-03-12T08:11:59.698Z,4.00
2023-03-12T08:14:46.631Z,3.60
2023-03-12T08:17:29.253Z,3.70
2023-03-12T08:20:14.700Z,3.20
2023-03-12T08:22:47.637Z,2.40
2023-03-12T08:25:23.818Z,4.10
2023-03-12T08:27:51.664Z,3.10
2023-03-12T08:30:18.954Z,2.70
2023-03-12T08:32:53.552Z,3.00
2023-03-12T08:35:30.710Z,3.00
2023-03-12T08:42:01.537Z,1.60
2023-03-12T08:44:42.159Z,1.70
2023-03-12T08:47:12.416Z,5.80
2023-03-12T08:55:42.994Z,8.50
2023-03-12T09:15:04.561Z,2.90
2023-03-12T09:18:18.117Z,3.40
2023-03-12T09:21:02.127Z,1.70
2023-03-12T09:23:46.855Z,1.60
2023-03-12T13:31:58.895Z,10.00
2023-03-12T14:40:47.578Z,3.70
2023-03-12T21:48:44.367Z,16.30
2023-03-12T22:20:38.373Z,13.40
2023-03-12T22:23:18.862Z,10.90
2023-03-12T22:25:49.242Z,14.30
2023-03-12T22:28:19.601Z,11.80
2023-03-12T22:30:49.112Z,12.80
2023-03-12T22:33:17.885Z,11.20
2023-03-12T22:35:47.851Z,18.30
2023-03-12T22:38:18.788Z,19.00
2023-03-12T22:40:55.489Z,18.90
2023-03-12T22:43:27.816Z,17.30
2023-03-12T22:45:58.683Z,19.20
2023-03-12T22:48:29.052Z,16.70
2023-03-12T22:50:58.401Z,13.80
2023-03-12T22:53:33.655Z,11.70
2023-03-12T22:56:05.012Z,11.50
2023-03-12T22:58:35.958Z,16.90
2023-03-12T23:03:57.481Z,14.50
2023-03-12T23:06:27.668Z,9.40
2023-03-12T23:08:56.979Z,15.50
2023-03-12T23:11:33.048Z,16.30
2023-03-12T23:14:01.854Z,15.60
2023-03-12T23:16:34.584Z,14.90
2023-03-12T23:19:11.523Z,12.70
2023-03-12T23:21:42.446Z,18.00
2023-03-12T23:24:16.238Z,14.30
2023-03-12T23:26:47.281Z,16.20
2023-03-12T23:29:16.278Z,14.90
2023-03-12T23:31:45.286Z,14.70
2023-03-12T23:34:14.319Z,15.70
2023-03-12T23:36:48.491Z,15.30
2023-03-12T23:39:17.698Z,17.00
2023-03-12T23:41:46.924Z,14.10
2023-03-12T23:44:18.641Z,13.30
2023-03-12T23:46:48.148Z,12.50
2023-03-12T23:52:34.552Z,5.60
2023-03-12T23:55:08.275Z,7.10
2023-03-12T23:57:42.486Z,6.30
